Circle T — WDF4013 — position and weather

sailwx.info

Track history (hours):
 
Tides and Currents Weather Stations Pressure Air Temp Water Temp Dewpoint Dewpoint Depression Visibility Wind Speed Wind Dir Waves Ship Positions

Circle T

Owner: Tymczyszyn, John S, San Pedro, CA. More information available from US FCC via Universal Licensing System and Coast Guard Vessel Documentation Center.

Last reported at 2018-Jul-18 19:02 UTC. Time now 2018-Jul-20 01:03 UTC.
Position N 48°25' W 123°17'.

Length 16 m; draft 25.5 m.

Type: Pleasure craft. MMSI: 367446870.

Date/timePositionNaut miles runAvg speedWind from/ knotsBaromVisibWave heightAir tempDewpointWater temp
2018-Jul-18 19:02N 48°25' W 123°17'0 8.3
2018-Jul-18 19:00N 48°25' W 123°17'4 7.6
2018-Jul-18 18:29N 48°29' W 123°14'12 0.3
2018-Jul-16 23:21N 48°41' W 123°14'14 0.5
2018-Jul-15 20:17N 48°35' W 122°55'2 6.2
2018-Jul-15 20:00N 48°34' W 122°52'3 5.9
2018-Jul-15 19:30N 48°32' W 122°49'3 4.9
2018-Jul-15 18:50N 48°31' W 122°45'3 7.7
2018-Jul-15 18:26N 48°31' W 122°40'3 6.2
2018-Jul-15 18:00N 48°31' W 122°36'0 0.4
2018-Jul-15 17:30N 48°31' W 122°36'0 0.0
2018-Jul-15 16:54N 48°31' W 122°36'0 0.0
2018-Jul-15 16:30N 48°31' W 122°36'0 0.0
2018-Jul-15 16:00N 48°31' W 122°36'0 0.0
2018-Jul-15 15:30N 48°31' W 122°36'0 0.0
2018-Jul-15 15:00N 48°31' W 122°36'0 0.0
2018-Jul-15 14:24N 48°31' W 122°36'0 0.0
2018-Jul-15 14:00N 48°31' W 122°36'0 0.0
2018-Jul-15 13:30N 48°31' W 122°36'0 0.0
2018-Jul-15 13:00N 48°31' W 122°36'0 0.0
2018-Jul-15 12:30N 48°31' W 122°36'0 0.0
2018-Jul-15 12:00N 48°31' W 122°36'0 0.0
2018-Jul-15 11:30N 48°31' W 122°36'0 0.0
2018-Jul-15 10:52N 48°31' W 122°36'0 0.0
2018-Jul-15 10:28N 48°31' W 122°36'0 0.0
2018-Jul-15 09:58N 48°31' W 122°36'0 0.0
2018-Jul-15 09:28N 48°31' W 122°36'0 0.0
2018-Jul-15 08:58N 48°31' W 122°36'0 0.0
2018-Jul-15 08:28N 48°31' W 122°36'0 0.0
2018-Jul-15 07:58N 48°31' W 122°36'0 0.0
2018-Jul-15 07:28N 48°31' W 122°36'0 0.0
2018-Jul-15 06:58N 48°31' W 122°36'0 0.0
2018-Jul-15 06:28N 48°31' W 122°36'0 0.0
2018-Jul-15 06:00N 48°31' W 122°36'0 0.0
2018-Jul-15 05:30N 48°31' W 122°36'0 0.0
2018-Jul-15 05:00N 48°31' W 122°36'0 0.0
2018-Jul-15 04:30N 48°31' W 122°36'0 0.0
2018-Jul-15 04:00N 48°31' W 122°36'0 0.0
2018-Jul-15 03:30N 48°31' W 122°36'0 0.0
2018-Jul-15 03:00N 48°31' W 122°36'0 0.0
2018-Jul-15 02:24N 48°31' W 122°36'0 0.0
2018-Jul-15 02:00N 48°31' W 122°36'0 0.0
2018-Jul-15 01:30N 48°31' W 122°36'0 0.0
2018-Jul-15 01:00N 48°31' W 122°36'0 0.0
2018-Jul-15 00:30N 48°31' W 122°36'0 0.0
2018-Jul-15 00:00N 48°31' W 122°36'0 0.0
2018-Jul-14 23:30N 48°31' W 122°36'0 0.0
2018-Jul-14 23:00N 48°31' W 122°36'0 0.0
2018-Jul-14 22:30N 48°31' W 122°36'0 0.0
2018-Jul-14 22:00N 48°31' W 122°36'0 0.0
2018-Jul-14 21:30N 48°31' W 122°36'0 0.0
2018-Jul-14 21:00N 48°31' W 122°36'0 0.0
2018-Jul-14 20:24N 48°31' W 122°36'0 0.0
2018-Jul-14 20:00N 48°31' W 122°36'0 0.0
2018-Jul-14 19:30N 48°31' W 122°36'0 0.0
2018-Jul-14 19:00N 48°31' W 122°36'0 0.0
2018-Jul-14 18:30N 48°31' W 122°36'0 0.0
2018-Jul-14 18:00N 48°31' W 122°36'0 0.0
2018-Jul-14 17:30N 48°31' W 122°36'0 0.0
2018-Jul-14 17:00N 48°31' W 122°36'0 0.0
2018-Jul-14 16:24N 48°31' W 122°36'0 0.0
2018-Jul-14 16:00N 48°31' W 122°36'0 0.0
2018-Jul-14 15:30N 48°31' W 122°36'0 0.0
2018-Jul-14 15:00N 48°31' W 122°36'0 0.0
2018-Jul-14 14:30N 48°31' W 122°36'0 0.0
2018-Jul-14 13:30N 48°31' W 122°36'0 0.0
2018-Jul-14 12:54N 48°31' W 122°36'0 0.0
2018-Jul-14 12:30N 48°31' W 122°36'0 0.0
2018-Jul-14 12:00N 48°31' W 122°36'0 0.0
2018-Jul-14 11:30N 48°31' W 122°36'0 0.0
2018-Jul-14 10:57N 48°31' W 122°36'0 0.0
2018-Jul-14 10:27N 48°31' W 122°36'0 0.0
2018-Jul-14 09:57N 48°31' W 122°36'0 0.0
2018-Jul-14 09:27N 48°31' W 122°36'0 0.0
2018-Jul-14 08:57N 48°31' W 122°36'0 0.0
2018-Jul-14 08:27N 48°31' W 122°36'0 0.0
2018-Jul-14 07:57N 48°31' W 122°36'0 0.0
2018-Jul-14 07:30N 48°31' W 122°36'0 0.0
2018-Jul-14 07:00N 48°31' W 122°36'0 0.0
2018-Jul-14 06:30N 48°31' W 122°36'0 0.0
2018-Jul-14 06:00N 48°31' W 122°36'0 0.0
2018-Jul-14 05:30N 48°31' W 122°36'0 0.0
2018-Jul-14 05:00N 48°31' W 122°36'0 0.0
2018-Jul-14 04:27N 48°31' W 122°36'0 0.0
2018-Jul-14 03:57N 48°31' W 122°36'0 0.0
2018-Jul-14 03:27N 48°31' W 122°36'0 0.0
2018-Jul-14 02:57N 48°31' W 122°36'0 0.0
2018-Jul-14 02:27N 48°31' W 122°36'0 0.0
2018-Jul-14 01:57N 48°31' W 122°36'0 0.0
2018-Jul-14 01:27N 48°31' W 122°36'0 0.0
2018-Jul-14 00:57N 48°31' W 122°36'0 0.0
2018-Jul-14 00:21N 48°31' W 122°36'0 0.0
2018-Jul-13 23:57N 48°31' W 122°36'0 0.0
2018-Jul-13 23:21N 48°31' W 122°36'0 0.0
2018-Jul-13 22:57N 48°31' W 122°36'0 0.0
2018-Jul-13 22:21N 48°31' W 122°36'0 0.0
2018-Jul-13 22:00N 48°31' W 122°36'0 0.0
2018-Jul-13 21:26N 48°31' W 122°36'0 0.0
2018-Jul-13 20:58N 48°31' W 122°36'0 0.0
2018-Jul-13 20:28N 48°31' W 122°36'0 0.0
2018-Jul-13 19:50N 48°31' W 122°36'0 0.0
2018-Jul-13 19:26N 48°31' W 122°36'0 0.0
2018-Jul-13 18:56N 48°31' W 122°36'0 0.0
2018-Jul-13 18:26N 48°31' W 122°36'0 0.0
2018-Jul-13 17:56N 48°31' W 122°36'0 0.0
2018-Jul-13 17:26N 48°31' W 122°36'0 0.0
2018-Jul-13 16:58N 48°31' W 122°36'0 0.0
2018-Jul-13 16:28N 48°31' W 122°36'0 0.0
2018-Jul-13 15:58N 48°31' W 122°36'0 0.0
2018-Jul-13 15:28N 48°31' W 122°36'0 0.0
2018-Jul-13 14:58N 48°31' W 122°36'0 0.0
2018-Jul-13 13:58N 48°31' W 122°36'0 0.0
2018-Jul-13 13:28N 48°31' W 122°36'0 0.0
2018-Jul-13 12:58N 48°31' W 122°36'0 0.0
2018-Jul-13 12:28N 48°31' W 122°36'0 0.0
2018-Jul-13 11:58N 48°31' W 122°36'0 0.0
2018-Jul-13 11:28N 48°31' W 122°36'0 0.0
2018-Jul-13 10:52N 48°31' W 122°36'0 0.0
2018-Jul-13 10:28N 48°31' W 122°36'0 0.0
2018-Jul-13 09:58N 48°31' W 122°36'0 0.0
2018-Jul-13 09:28N 48°31' W 122°36'0 0.0
2018-Jul-13 08:58N 48°31' W 122°36'0 0.0
2018-Jul-13 08:28N 48°31' W 122°36'0 0.0
2018-Jul-13 07:58N 48°31' W 122°36'0 0.0
2018-Jul-13 07:28N 48°31' W 122°36'0 0.0
2018-Jul-13 06:58N 48°31' W 122°36'0 0.0
2018-Jul-13 06:28N 48°31' W 122°36'0 0.0
2018-Jul-13 05:58N 48°31' W 122°36'0 0.0
2018-Jul-13 05:28N 48°31' W 122°36'0 0.0
2018-Jul-13 04:58N 48°31' W 122°36'0 0.0
2018-Jul-13 04:28N 48°31' W 122°36'0 0.0
2018-Jul-13 03:58N 48°31' W 122°36'0 0.0
2018-Jul-13 03:28N 48°31' W 122°36'0 0.0
2018-Jul-13 02:58N 48°31' W 122°36'0 0.0
2018-Jul-13 02:22N 48°31' W 122°36'0 0.0
2018-Jul-13 01:58N 48°31' W 122°36'0 0.0
2018-Jul-13 01:16N 48°31' W 122°36'0 0.0
2018-Jul-13 00:58N 48°31' W 122°36'0 0.0
2018-Jul-13 00:28N 48°31' W 122°36'0 0.0
2018-Jul-12 23:58N 48°31' W 122°36'0 0.0
2018-Jul-12 23:22N 48°31' W 122°36'0 0.0
2018-Jul-12 22:58N 48°31' W 122°36'0 0.0
2018-Jul-12 22:22N 48°31' W 122°36'0 0.0
2018-Jul-12 21:58N 48°31' W 122°36'0 0.0
2018-Jul-12 21:28N 48°31' W 122°36'0 0.0
2018-Jul-12 20:58N 48°31' W 122°36'0 0.0
2018-Jul-12 20:28N 48°31' W 122°36'0 0.0
2018-Jul-12 19:58N 48°31' W 122°36'0 0.0
2018-Jul-12 19:28N 48°31' W 122°36'0 0.0
2018-Jul-12 18:58N 48°31' W 122°36'0 0.0
2018-Jul-12 17:58N 48°31' W 122°36'0 0.0
2018-Jul-12 17:28N 48°31' W 122°36'0 0.0
2018-Jul-12 16:58N 48°31' W 122°36'0 0.0
2018-Jul-12 16:28N 48°31' W 122°36'0 0.0
2018-Jul-12 15:58N 48°31' W 122°36'0 0.0
2018-Jul-12 15:28N 48°31' W 122°36'0 0.0
2018-Jul-12 14:58N 48°31' W 122°36'0 0.0
2018-Jul-12 14:28N 48°31' W 122°36'0 0.0
2018-Jul-12 13:58N 48°31' W 122°36'0 0.0
2018-Jul-12 13:28N 48°31' W 122°36'0 0.0
2018-Jul-12 12:58N 48°31' W 122°36'0 0.0
2018-Jul-12 12:28N 48°31' W 122°36'0 0.0
2018-Jul-12 11:58N 48°31' W 122°36'0 0.0
2018-Jul-12 11:28N 48°31' W 122°36'0 0.0
2018-Jul-12 10:58N 48°31' W 122°36'0 0.0
2018-Jul-12 10:28N 48°31' W 122°36'0 0.0
2018-Jul-12 09:58N 48°31' W 122°36'0 0.0
2018-Jul-12 09:28N 48°31' W 122°36'0 0.0
2018-Jul-12 08:58N 48°31' W 122°36'0 0.0
2018-Jul-12 08:28N 48°31' W 122°36'0 0.0
2018-Jul-12 07:58N 48°31' W 122°36'0 0.0
2018-Jul-12 07:28N 48°31' W 122°36'0 0.0
2018-Jul-12 06:58N 48°31' W 122°36'0 0.0
2018-Jul-12 06:28N 48°31' W 122°36'0 0.0
2018-Jul-12 05:58N 48°31' W 122°36'0 0.0
2018-Jul-12 05:29N 48°31' W 122°36'0 0.0
2018-Jul-12 04:58N 48°31' W 122°36'0 0.0
2018-Jul-12 04:28N 48°31' W 122°36'0 0.0
2018-Jul-12 03:58N 48°31' W 122°36'0 0.0
2018-Jul-12 03:28N 48°31' W 122°36'0 0.0
2018-Jul-12 02:59N 48°31' W 122°36'0 0.0
2018-Jul-12 02:29N 48°31' W 122°36'0 0.0
2018-Jul-12 01:59N 48°31' W 122°36'0 0.0
2018-Jul-12 01:29N 48°31' W 122°36'0 0.0
2018-Jul-12 00:59N 48°31' W 122°36'0 0.0
2018-Jul-12 00:29N 48°31' W 122°36'0 0.0
2018-Jul-11 23:59N 48°31' W 122°36'0 0.0
2018-Jul-11 23:29N 48°31' W 122°36'0 0.0
2018-Jul-11 22:59N 48°31' W 122°36'0 0.0
2018-Jul-11 22:29N 48°31' W 122°36'0 0.0
2018-Jul-11 21:59N 48°31' W 122°36'0 0.0
2018-Jul-11 21:29N 48°31' W 122°36'0 0.0
2018-Jul-11 20:59N 48°31' W 122°36'0 0.0
2018-Jul-11 20:29N 48°31' W 122°36'0 0.0
2018-Jul-11 19:59N 48°31' W 122°36'0 0.0
2018-Jul-11 19:29N 48°31' W 122°36'0 0.0
2018-Jul-11 18:59N 48°31' W 122°36'0 0.0
2018-Jul-11 18:29N 48°31' W 122°36'0 0.0
2018-Jul-11 17:53N 48°31' W 122°36'0 0.0
2018-Jul-11 17:23N 48°31' W 122°36'0 0.0
2018-Jul-11 16:53N 48°31' W 122°36'0 0.0
2018-Jul-11 16:29N 48°31' W 122°36'0 0.0
2018-Jul-11 15:59N 48°31' W 122°36'0 0.0
2018-Jul-11 15:29N 48°31' W 122°36'0 0.0
2018-Jul-11 14:53N 48°31' W 122°36'0 0.0
2018-Jul-11 14:29N 48°31' W 122°36'0 0.0
2018-Jul-11 13:59N 48°31' W 122°36'0 0.0
2018-Jul-11 13:29N 48°31' W 122°36'0 0.0
2018-Jul-11 12:59N 48°31' W 122°36'0 0.0
2018-Jul-11 12:29N 48°31' W 122°36'0 0.0
2018-Jul-11 11:59N 48°31' W 122°36'0 0.0
2018-Jul-11 11:29N 48°31' W 122°36'0 0.0
2018-Jul-11 10:59N 48°31' W 122°36'0 0.0
2018-Jul-11 10:17N 48°31' W 122°36'0 0.0
2018-Jul-11 09:59N 48°31' W 122°36'0 0.0
2018-Jul-11 09:29N 48°31' W 122°36'0 0.0
2018-Jul-11 08:59N 48°31' W 122°36'0 0.0
2018-Jul-11 08:29N 48°31' W 122°36'0 0.0
2018-Jul-11 07:59N 48°31' W 122°36'0 0.0
2018-Jul-11 07:29N 48°31' W 122°36'0 0.0
2018-Jul-11 06:59N 48°31' W 122°36'0 0.0
2018-Jul-11 06:29N 48°31' W 122°36'0 0.0
2018-Jul-11 05:59N 48°31' W 122°36'0 0.0
2018-Jul-11 05:29N 48°31' W 122°36'0 0.0
2018-Jul-11 04:59N 48°31' W 122°36'0 0.0
2018-Jul-11 04:29N 48°31' W 122°36'0 0.0
2018-Jul-11 03:59N 48°31' W 122°36'0 0.0
2018-Jul-11 03:29N 48°31' W 122°36'0 0.0
2018-Jul-11 02:59N 48°31' W 122°36'0 0.0
2018-Jul-11 02:29N 48°31' W 122°36'0 0.0
2018-Jul-11 01:59N 48°31' W 122°36'0 0.0
2018-Jul-11 01:29N 48°31' W 122°36'0 0.0
2018-Jul-11 00:53N 48°31' W 122°36'0 0.0
2018-Jul-11 00:29N 48°31' W 122°36'0 0.0
2018-Jul-10 23:59N 48°31' W 122°36'0 0.0
2018-Jul-10 23:29N 48°31' W 122°36'0 0.0
2018-Jul-10 22:59N 48°31' W 122°36'0 0.0
2018-Jul-10 22:29N 48°31' W 122°36'0 0.0
2018-Jul-10 21:59N 48°31' W 122°36'0 0.0
2018-Jul-10 21:29N 48°31' W 122°36'0 0.0
2018-Jul-10 20:59N 48°31' W 122°36'0 0.0
2018-Jul-10 20:29N 48°31' W 122°36'0 0.0
2018-Jul-10 19:59N 48°31' W 122°36'0 0.0
2018-Jul-10 19:29N 48°31' W 122°36'0 0.0
2018-Jul-10 18:53N 48°31' W 122°36'0 0.0
2018-Jul-10 18:23N 48°31' W 122°36'0 0.0
2018-Jul-10 17:59N 48°31' W 122°36'0 0.0
2018-Jul-10 17:29N 48°31' W 122°36'0 0.0
2018-Jul-10 16:53N 48°31' W 122°36'0 0.0
2018-Jul-10 16:29N 48°31' W 122°36'0 0.0
2018-Jul-10 15:59N 48°31' W 122°36'0 0.0
2018-Jul-10 15:29N 48°31' W 122°36'0 0.0
2018-Jul-10 14:59N 48°31' W 122°36'0 0.0
2018-Jul-10 14:29N 48°31' W 122°36'0 0.0
2018-Jul-10 13:59N 48°31' W 122°36'0 0.0
2018-Jul-10 13:29N 48°31' W 122°36'0 0.0
2018-Jul-10 12:59N 48°31' W 122°36'0 0.0
2018-Jul-10 12:29N 48°31' W 122°36'0 0.0
2018-Jul-10 11:59N 48°31' W 122°36'0 0.0
2018-Jul-10 11:29N 48°31' W 122°36'0 0.0
2018-Jul-10 10:59N 48°31' W 122°36'0 0.0
2018-Jul-10 10:29N 48°31' W 122°36'0 0.0
2018-Jul-10 09:50N 48°31' W 122°36'0 0.0
2018-Jul-10 09:26N 48°31' W 122°36'0 0.0
2018-Jul-10 08:53N 48°31' W 122°36'0 0.0
2018-Jul-10 08:17N 48°31' W 122°36'0 0.0
2018-Jul-10 07:59N 48°31' W 122°36'0 0.0
2018-Jul-10 07:23N 48°31' W 122°36'0 0.0
2018-Jul-10 06:59N 48°31' W 122°36'0 0.0
2018-Jul-10 06:29N 48°31' W 122°36'0 0.0
2018-Jul-10 05:59N 48°31' W 122°36'0 0.0
2018-Jul-10 05:29N 48°31' W 122°36'0 0.0
2018-Jul-10 04:59N 48°31' W 122°36'0 0.0
2018-Jul-10 04:29N 48°31' W 122°36'0 0.0
2018-Jul-10 03:53N 48°31' W 122°36'0 0.0
2018-Jul-10 03:29N 48°31' W 122°36'0 0.0
2018-Jul-10 02:59N 48°31' W 122°36'0 0.0
2018-Jul-10 02:29N 48°31' W 122°36'0 0.0
2018-Jul-10 01:53N 48°31' W 122°36'0 0.0
2018-Jul-10 01:29N 48°31' W 122°36'0 0.0
2018-Jul-10 00:59N 48°31' W 122°36'0 0.0
2018-Jul-10 00:29N 48°31' W 122°36'0 0.0
2018-Jul-09 23:59N 48°31' W 122°36'0 0.0
2018-Jul-09 23:29N 48°31' W 122°36'0 0.0
2018-Jul-09 22:59N 48°31' W 122°36'0 0.0
2018-Jul-09 22:29N 48°31' W 122°36'0 0.0
2018-Jul-09 21:59N 48°31' W 122°36'0 0.0
2018-Jul-09 21:29N 48°31' W 122°36'0 0.0
2018-Jul-09 20:59N 48°31' W 122°36'0 0.0
2018-Jul-09 20:29N 48°31' W 122°36'0 0.0
2018-Jul-09 19:59N 48°31' W 122°36'0 0.0
2018-Jul-09 19:23N 48°31' W 122°36'0 0.0
2018-Jul-09 18:59N 48°31' W 122°36'0 0.0
2018-Jul-09 18:20N 48°31' W 122°36'0 0.0
2018-Jul-09 17:50N 48°31' W 122°36'0 0.0
2018-Jul-09 17:26N 48°31' W 122°36'0 0.0
2018-Jul-09 16:56N 48°31' W 122°36'0 0.0
2018-Jul-09 16:26N 48°31' W 122°36'0 0.0
2018-Jul-09 15:56N 48°31' W 122°36'0 0.0
2018-Jul-09 15:20N 48°31' W 122°36'0 0.0
2018-Jul-09 14:56N 48°31' W 122°36'0 0.0
2018-Jul-09 14:26N 48°31' W 122°36'0 0.0
2018-Jul-09 13:56N 48°31' W 122°36'0 0.0
2018-Jul-09 13:26N 48°31' W 122°36'0 0.0
2018-Jul-09 12:56N 48°31' W 122°36'0 0.0
2018-Jul-09 12:23N 48°31' W 122°36'0 0.0
2018-Jul-09 11:59N 48°31' W 122°36'0 0.0
2018-Jul-09 11:29N 48°31' W 122°36'0 0.0
2018-Jul-09 10:59N 48°31' W 122°36'0 0.0
2018-Jul-09 10:29N 48°31' W 122°36'0 0.0
2018-Jul-09 09:59N 48°31' W 122°36'0 0.0
2018-Jul-09 09:29N 48°31' W 122°36'0 0.0
2018-Jul-09 08:59N 48°31' W 122°36'0 0.0
2018-Jul-09 08:29N 48°31' W 122°36'0 0.0
2018-Jul-09 07:59N 48°31' W 122°36'0 0.0
2018-Jul-09 07:29N 48°31' W 122°36'0 0.0
2018-Jul-09 06:59N 48°31' W 122°36'0 0.0
2018-Jul-09 06:29N 48°31' W 122°36'0 0.0
2018-Jul-09 05:50N 48°31' W 122°36'0 0.0
2018-Jul-09 05:26N 48°31' W 122°36'0 0.0
2018-Jul-09 04:56N 48°31' W 122°36'0 0.0
2018-Jul-09 04:26N 48°31' W 122°36'0 0.0
2018-Jul-09 03:56N 48°31' W 122°36'0 0.0
2018-Jul-09 03:26N 48°31' W 122°36'0 0.0
2018-Jul-09 02:56N 48°31' W 122°36'0 0.0
2018-Jul-09 02:26N 48°31' W 122°36'0 0.0
2018-Jul-09 01:50N 48°31' W 122°36'0 0.0
2018-Jul-09 01:26N 48°31' W 122°36'0 0.0
2018-Jul-09 00:59N 48°31' W 122°36'0 0.0
2018-Jul-09 00:29N 48°31' W 122°36'0 0.0
2018-Jul-08 23:59N 48°31' W 122°36'0 0.0
2018-Jul-08 23:29N 48°31' W 122°36'0 0.0
2018-Jul-08 22:59N 48°31' W 122°36'0 0.0
2018-Jul-08 22:29N 48°31' W 122°36'0 0.0
2018-Jul-08 21:53N 48°31' W 122°36'0 0.0
2018-Jul-08 21:29N 48°31' W 122°36'0 0.0
2018-Jul-08 20:59N 48°31' W 122°36'0 0.0
2018-Jul-08 20:29N 48°31' W 122°36'0 0.0
2018-Jul-08 19:59N 48°31' W 122°36'0 0.0
2018-Jul-08 19:29N 48°31' W 122°36'  
Track history (hours):
 
Tides and Currents Weather Stations Pressure Air Temp Water Temp Dewpoint Dewpoint Depression Visibility Wind Speed Wind Dir Waves Ship Positions

Circle T

Owner: Tymczyszyn, John S, San Pedro, CA. More information available from US FCC via Universal Licensing System and Coast Guard Vessel Documentation Center.

Last reported at 2018-Jul-18 19:02 UTC. Time now 2018-Jul-20 01:03 UTC.
Position N 48°25' W 123°17'.

Length 16 m; draft 25.5 m.

Type: Pleasure craft. MMSI: 367446870.

Date/timePositionNaut miles runAvg speedWind from/ knotsBaromVisibWave heightAir tempDewpointWater temp
2018-Jul-18 19:02N 48°25' W 123°17'0 8.3
2018-Jul-18 19:00N 48°25' W 123°17'4 7.6
2018-Jul-18 18:29N 48°29' W 123°14'12 0.3
2018-Jul-16 23:21N 48°41' W 123°14'14 0.5
2018-Jul-15 20:17N 48°35' W 122°55'2 6.2
2018-Jul-15 20:00N 48°34' W 122°52'3 5.9
2018-Jul-15 19:30N 48°32' W 122°49'3 4.9
2018-Jul-15 18:50N 48°31' W 122°45'3 7.7
2018-Jul-15 18:26N 48°31' W 122°40'3 6.2
2018-Jul-15 18:00N 48°31' W 122°36'0 0.4
2018-Jul-15 17:30N 48°31' W 122°36'0 0.0
2018-Jul-15 16:54N 48°31' W 122°36'0 0.0
2018-Jul-15 16:30N 48°31' W 122°36'0 0.0
2018-Jul-15 16:00N 48°31' W 122°36'0 0.0
2018-Jul-15 15:30N 48°31' W 122°36'0 0.0
2018-Jul-15 15:00N 48°31' W 122°36'0 0.0
2018-Jul-15 14:24N 48°31' W 122°36'0 0.0
2018-Jul-15 14:00N 48°31' W 122°36'0 0.0
2018-Jul-15 13:30N 48°31' W 122°36'0 0.0
2018-Jul-15 13:00N 48°31' W 122°36'0 0.0
2018-Jul-15 12:30N 48°31' W 122°36'0 0.0
2018-Jul-15 12:00N 48°31' W 122°36'0 0.0
2018-Jul-15 11:30N 48°31' W 122°36'0 0.0
2018-Jul-15 10:52N 48°31' W 122°36'0 0.0
2018-Jul-15 10:28N 48°31' W 122°36'0 0.0
2018-Jul-15 09:58N 48°31' W 122°36'0 0.0
2018-Jul-15 09:28N 48°31' W 122°36'0 0.0
2018-Jul-15 08:58N 48°31' W 122°36'0 0.0
2018-Jul-15 08:28N 48°31' W 122°36'0 0.0
2018-Jul-15 07:58N 48°31' W 122°36'0 0.0
2018-Jul-15 07:28N 48°31' W 122°36'0 0.0
2018-Jul-15 06:58N 48°31' W 122°36'0 0.0
2018-Jul-15 06:28N 48°31' W 122°36'0 0.0
2018-Jul-15 06:00N 48°31' W 122°36'0 0.0
2018-Jul-15 05:30N 48°31' W 122°36'0 0.0
2018-Jul-15 05:00N 48°31' W 122°36'0 0.0
2018-Jul-15 04:30N 48°31' W 122°36'0 0.0
2018-Jul-15 04:00N 48°31' W 122°36'0 0.0
2018-Jul-15 03:30N 48°31' W 122°36'0 0.0
2018-Jul-15 03:00N 48°31' W 122°36'0 0.0
2018-Jul-15 02:24N 48°31' W 122°36'0 0.0
2018-Jul-15 02:00N 48°31' W 122°36'0 0.0
2018-Jul-15 01:30N 48°31' W 122°36'0 0.0
2018-Jul-15 01:00N 48°31' W 122°36'0 0.0
2018-Jul-15 00:30N 48°31' W 122°36'0 0.0
2018-Jul-15 00:00N 48°31' W 122°36'0 0.0
2018-Jul-14 23:30N 48°31' W 122°36'0 0.0
2018-Jul-14 23:00N 48°31' W 122°36'0 0.0
2018-Jul-14 22:30N 48°31' W 122°36'0 0.0
2018-Jul-14 22:00N 48°31' W 122°36'0 0.0
2018-Jul-14 21:30N 48°31' W 122°36'0 0.0
2018-Jul-14 21:00N 48°31' W 122°36'0 0.0
2018-Jul-14 20:24N 48°31' W 122°36'0 0.0
2018-Jul-14 20:00N 48°31' W 122°36'0 0.0
2018-Jul-14 19:30N 48°31' W 122°36'0 0.0
2018-Jul-14 19:00N 48°31' W 122°36'0 0.0
2018-Jul-14 18:30N 48°31' W 122°36'0 0.0
2018-Jul-14 18:00N 48°31' W 122°36'0 0.0
2018-Jul-14 17:30N 48°31' W 122°36'0 0.0
2018-Jul-14 17:00N 48°31' W 122°36'0 0.0
2018-Jul-14 16:24N 48°31' W 122°36'0 0.0
2018-Jul-14 16:00N 48°31' W 122°36'0 0.0
2018-Jul-14 15:30N 48°31' W 122°36'0 0.0
2018-Jul-14 15:00N 48°31' W 122°36'0 0.0
2018-Jul-14 14:30N 48°31' W 122°36'0 0.0
2018-Jul-14 13:30N 48°31' W 122°36'0 0.0
2018-Jul-14 12:54N 48°31' W 122°36'0 0.0
2018-Jul-14 12:30N 48°31' W 122°36'0 0.0
2018-Jul-14 12:00N 48°31' W 122°36'0 0.0
2018-Jul-14 11:30N 48°31' W 122°36'0 0.0
2018-Jul-14 10:57N 48°31' W 122°36'0 0.0
2018-Jul-14 10:27N 48°31' W 122°36'0 0.0
2018-Jul-14 09:57N 48°31' W 122°36'0 0.0
2018-Jul-14 09:27N 48°31' W 122°36'0 0.0
2018-Jul-14 08:57N 48°31' W 122°36'0 0.0
2018-Jul-14 08:27N 48°31' W 122°36'0 0.0
2018-Jul-14 07:57N 48°31' W 122°36'0 0.0
2018-Jul-14 07:30N 48°31' W 122°36'0 0.0
2018-Jul-14 07:00N 48°31' W 122°36'0 0.0
2018-Jul-14 06:30N 48°31' W 122°36'0 0.0
2018-Jul-14 06:00N 48°31' W 122°36'0 0.0
2018-Jul-14 05:30N 48°31' W 122°36'0 0.0
2018-Jul-14 05:00N 48°31' W 122°36'0 0.0
2018-Jul-14 04:27N 48°31' W 122°36'0 0.0
2018-Jul-14 03:57N 48°31' W 122°36'0 0.0
2018-Jul-14 03:27N 48°31' W 122°36'0 0.0
2018-Jul-14 02:57N 48°31' W 122°36'0 0.0
2018-Jul-14 02:27N 48°31' W 122°36'0 0.0
2018-Jul-14 01:57N 48°31' W 122°36'0 0.0
2018-Jul-14 01:27N 48°31' W 122°36'0 0.0
2018-Jul-14 00:57N 48°31' W 122°36'0 0.0
2018-Jul-14 00:21N 48°31' W 122°36'0 0.0
2018-Jul-13 23:57N 48°31' W 122°36'0 0.0
2018-Jul-13 23:21N 48°31' W 122°36'0 0.0
2018-Jul-13 22:57N 48°31' W 122°36'0 0.0
2018-Jul-13 22:21N 48°31' W 122°36'0 0.0
2018-Jul-13 22:00N 48°31' W 122°36'0 0.0
2018-Jul-13 21:26N 48°31' W 122°36'0 0.0
2018-Jul-13 20:58N 48°31' W 122°36'0 0.0
2018-Jul-13 20:28N 48°31' W 122°36'0 0.0
2018-Jul-13 19:50N 48°31' W 122°36'0 0.0
2018-Jul-13 19:26N 48°31' W 122°36'0 0.0
2018-Jul-13 18:56N 48°31' W 122°36'0 0.0
2018-Jul-13 18:26N 48°31' W 122°36'0 0.0
2018-Jul-13 17:56N 48°31' W 122°36'0 0.0
2018-Jul-13 17:26N 48°31' W 122°36'0 0.0
2018-Jul-13 16:58N 48°31' W 122°36'0 0.0
2018-Jul-13 16:28N 48°31' W 122°36'0 0.0
2018-Jul-13 15:58N 48°31' W 122°36'0 0.0
2018-Jul-13 15:28N 48°31' W 122°36'0 0.0
2018-Jul-13 14:58N 48°31' W 122°36'0 0.0
2018-Jul-13 13:58N 48°31' W 122°36'0 0.0
2018-Jul-13 13:28N 48°31' W 122°36'0 0.0
2018-Jul-13 12:58N 48°31' W 122°36'0 0.0
2018-Jul-13 12:28N 48°31' W 122°36'0 0.0
2018-Jul-13 11:58N 48°31' W 122°36'0 0.0
2018-Jul-13 11:28N 48°31' W 122°36'0 0.0
2018-Jul-13 10:52N 48°31' W 122°36'0 0.0
2018-Jul-13 10:28N 48°31' W 122°36'0 0.0
2018-Jul-13 09:58N 48°31' W 122°36'0 0.0
2018-Jul-13 09:28N 48°31' W 122°36'0 0.0
2018-Jul-13 08:58N 48°31' W 122°36'0 0.0
2018-Jul-13 08:28N 48°31' W 122°36'0 0.0
2018-Jul-13 07:58N 48°31' W 122°36'0 0.0
2018-Jul-13 07:28N 48°31' W 122°36'0 0.0
2018-Jul-13 06:58N 48°31' W 122°36'0 0.0
2018-Jul-13 06:28N 48°31' W 122°36'0 0.0
2018-Jul-13 05:58N 48°31' W 122°36'0 0.0
2018-Jul-13 05:28N 48°31' W 122°36'0 0.0
2018-Jul-13 04:58N 48°31' W 122°36'0 0.0
2018-Jul-13 04:28N 48°31' W 122°36'0 0.0
2018-Jul-13 03:58N 48°31' W 122°36'0 0.0
2018-Jul-13 03:28N 48°31' W 122°36'0 0.0
2018-Jul-13 02:58N 48°31' W 122°36'0 0.0
2018-Jul-13 02:22N 48°31' W 122°36'0 0.0
2018-Jul-13 01:58N 48°31' W 122°36'0 0.0
2018-Jul-13 01:16N 48°31' W 122°36'0 0.0
2018-Jul-13 00:58N 48°31' W 122°36'0 0.0
2018-Jul-13 00:28N 48°31' W 122°36'0 0.0
2018-Jul-12 23:58N 48°31' W 122°36'0 0.0
2018-Jul-12 23:22N 48°31' W 122°36'0 0.0
2018-Jul-12 22:58N 48°31' W 122°36'0 0.0
2018-Jul-12 22:22N 48°31' W 122°36'0 0.0
2018-Jul-12 21:58N 48°31' W 122°36'0 0.0
2018-Jul-12 21:28N 48°31' W 122°36'0 0.0
2018-Jul-12 20:58N 48°31' W 122°36'0 0.0
2018-Jul-12 20:28N 48°31' W 122°36'0 0.0
2018-Jul-12 19:58N 48°31' W 122°36'0 0.0
2018-Jul-12 19:28N 48°31' W 122°36'0 0.0
2018-Jul-12 18:58N 48°31' W 122°36'0 0.0
2018-Jul-12 17:58N 48°31' W 122°36'0 0.0
2018-Jul-12 17:28N 48°31' W 122°36'0 0.0
2018-Jul-12 16:58N 48°31' W 122°36'0 0.0
2018-Jul-12 16:28N 48°31' W 122°36'0 0.0
2018-Jul-12 15:58N 48°31' W 122°36'0 0.0
2018-Jul-12 15:28N 48°31' W 122°36'0 0.0
2018-Jul-12 14:58N 48°31' W 122°36'0 0.0
2018-Jul-12 14:28N 48°31' W 122°36'0 0.0
2018-Jul-12 13:58N 48°31' W 122°36'0 0.0
2018-Jul-12 13:28N 48°31' W 122°36'0 0.0
2018-Jul-12 12:58N 48°31' W 122°36'0 0.0
2018-Jul-12 12:28N 48°31' W 122°36'0 0.0
2018-Jul-12 11:58N 48°31' W 122°36'0 0.0
2018-Jul-12 11:28N 48°31' W 122°36'0 0.0
2018-Jul-12 10:58N 48°31' W 122°36'0 0.0
2018-Jul-12 10:28N 48°31' W 122°36'0 0.0
2018-Jul-12 09:58N 48°31' W 122°36'0 0.0
2018-Jul-12 09:28N 48°31' W 122°36'0 0.0
2018-Jul-12 08:58N 48°31' W 122°36'0 0.0
2018-Jul-12 08:28N 48°31' W 122°36'0 0.0
2018-Jul-12 07:58N 48°31' W 122°36'0 0.0
2018-Jul-12 07:28N 48°31' W 122°36'0 0.0
2018-Jul-12 06:58N 48°31' W 122°36'0 0.0
2018-Jul-12 06:28N 48°31' W 122°36'0 0.0
2018-Jul-12 05:58N 48°31' W 122°36'0 0.0
2018-Jul-12 05:29N 48°31' W 122°36'0 0.0
2018-Jul-12 04:58N 48°31' W 122°36'0 0.0
2018-Jul-12 04:28N 48°31' W 122°36'0 0.0
2018-Jul-12 03:58N 48°31' W 122°36'0 0.0
2018-Jul-12 03:28N 48°31' W 122°36'0 0.0
2018-Jul-12 02:59N 48°31' W 122°36'0 0.0
2018-Jul-12 02:29N 48°31' W 122°36'0 0.0
2018-Jul-12 01:59N 48°31' W 122°36'0 0.0
2018-Jul-12 01:29N 48°31' W 122°36'0 0.0
2018-Jul-12 00:59N 48°31' W 122°36'0 0.0
2018-Jul-12 00:29N 48°31' W 122°36'0 0.0
2018-Jul-11 23:59N 48°31' W 122°36'0 0.0
2018-Jul-11 23:29N 48°31' W 122°36'0 0.0
2018-Jul-11 22:59N 48°31' W 122°36'0 0.0
2018-Jul-11 22:29N 48°31' W 122°36'0 0.0
2018-Jul-11 21:59N 48°31' W 122°36'0 0.0
2018-Jul-11 21:29N 48°31' W 122°36'0 0.0
2018-Jul-11 20:59N 48°31' W 122°36'0 0.0
2018-Jul-11 20:29N 48°31' W 122°36'0 0.0
2018-Jul-11 19:59N 48°31' W 122°36'0 0.0
2018-Jul-11 19:29N 48°31' W 122°36'0 0.0
2018-Jul-11 18:59N 48°31' W 122°36'0 0.0
2018-Jul-11 18:29N 48°31' W 122°36'0 0.0
2018-Jul-11 17:53N 48°31' W 122°36'0 0.0
2018-Jul-11 17:23N 48°31' W 122°36'0 0.0
2018-Jul-11 16:53N 48°31' W 122°36'0 0.0
2018-Jul-11 16:29N 48°31' W 122°36'0 0.0
2018-Jul-11 15:59N 48°31' W 122°36'0 0.0
2018-Jul-11 15:29N 48°31' W 122°36'0 0.0
2018-Jul-11 14:53N 48°31' W 122°36'0 0.0
2018-Jul-11 14:29N 48°31' W 122°36'0 0.0
2018-Jul-11 13:59N 48°31' W 122°36'0 0.0
2018-Jul-11 13:29N 48°31' W 122°36'0 0.0
2018-Jul-11 12:59N 48°31' W 122°36'0 0.0
2018-Jul-11 12:29N 48°31' W 122°36'0 0.0
2018-Jul-11 11:59N 48°31' W 122°36'0 0.0
2018-Jul-11 11:29N 48°31' W 122°36'0 0.0
2018-Jul-11 10:59N 48°31' W 122°36'0 0.0
2018-Jul-11 10:17N 48°31' W 122°36'0 0.0
2018-Jul-11 09:59N 48°31' W 122°36'0 0.0
2018-Jul-11 09:29N 48°31' W 122°36'0 0.0
2018-Jul-11 08:59N 48°31' W 122°36'0 0.0
2018-Jul-11 08:29N 48°31' W 122°36'0 0.0
2018-Jul-11 07:59N 48°31' W 122°36'0 0.0
2018-Jul-11 07:29N 48°31' W 122°36'0 0.0
2018-Jul-11 06:59N 48°31' W 122°36'0 0.0
2018-Jul-11 06:29N 48°31' W 122°36'0 0.0
2018-Jul-11 05:59N 48°31' W 122°36'0 0.0
2018-Jul-11 05:29N 48°31' W 122°36'0 0.0
2018-Jul-11 04:59N 48°31' W 122°36'0 0.0
2018-Jul-11 04:29N 48°31' W 122°36'0 0.0
2018-Jul-11 03:59N 48°31' W 122°36'0 0.0
2018-Jul-11 03:29N 48°31' W 122°36'0 0.0
2018-Jul-11 02:59N 48°31' W 122°36'0 0.0
2018-Jul-11 02:29N 48°31' W 122°36'0 0.0
2018-Jul-11 01:59N 48°31' W 122°36'0 0.0
2018-Jul-11 01:29N 48°31' W 122°36'0 0.0
2018-Jul-11 00:53N 48°31' W 122°36'0 0.0
2018-Jul-11 00:29N 48°31' W 122°36'0 0.0
2018-Jul-10 23:59N 48°31' W 122°36'0 0.0
2018-Jul-10 23:29N 48°31' W 122°36'0 0.0
2018-Jul-10 22:59N 48°31' W 122°36'0 0.0
2018-Jul-10 22:29N 48°31' W 122°36'0 0.0
2018-Jul-10 21:59N 48°31' W 122°36'0 0.0
2018-Jul-10 21:29N 48°31' W 122°36'0 0.0
2018-Jul-10 20:59N 48°31' W 122°36'0 0.0
2018-Jul-10 20:29N 48°31' W 122°36'0 0.0
2018-Jul-10 19:59N 48°31' W 122°36'0 0.0
2018-Jul-10 19:29N 48°31' W 122°36'0 0.0
2018-Jul-10 18:53N 48°31' W 122°36'0 0.0
2018-Jul-10 18:23N 48°31' W 122°36'0 0.0
2018-Jul-10 17:59N 48°31' W 122°36'0 0.0
2018-Jul-10 17:29N 48°31' W 122°36'0 0.0
2018-Jul-10 16:53N 48°31' W 122°36'0 0.0
2018-Jul-10 16:29N 48°31' W 122°36'0 0.0
2018-Jul-10 15:59N 48°31' W 122°36'0 0.0
2018-Jul-10 15:29N 48°31' W 122°36'0 0.0
2018-Jul-10 14:59N 48°31' W 122°36'0 0.0
2018-Jul-10 14:29N 48°31' W 122°36'0 0.0
2018-Jul-10 13:59N 48°31' W 122°36'0 0.0
2018-Jul-10 13:29N 48°31' W 122°36'0 0.0
2018-Jul-10 12:59N 48°31' W 122°36'0 0.0
2018-Jul-10 12:29N 48°31' W 122°36'0 0.0
2018-Jul-10 11:59N 48°31' W 122°36'0 0.0
2018-Jul-10 11:29N 48°31' W 122°36'0 0.0
2018-Jul-10 10:59N 48°31' W 122°36'0 0.0
2018-Jul-10 10:29N 48°31' W 122°36'0 0.0
2018-Jul-10 09:50N 48°31' W 122°36'0 0.0
2018-Jul-10 09:26N 48°31' W 122°36'0 0.0
2018-Jul-10 08:53N 48°31' W 122°36'0 0.0
2018-Jul-10 08:17N 48°31' W 122°36'0 0.0
2018-Jul-10 07:59N 48°31' W 122°36'0 0.0
2018-Jul-10 07:23N 48°31' W 122°36'0 0.0
2018-Jul-10 06:59N 48°31' W 122°36'0 0.0
2018-Jul-10 06:29N 48°31' W 122°36'0 0.0
2018-Jul-10 05:59N 48°31' W 122°36'0 0.0
2018-Jul-10 05:29N 48°31' W 122°36'0 0.0
2018-Jul-10 04:59N 48°31' W 122°36'0 0.0
2018-Jul-10 04:29N 48°31' W 122°36'0 0.0
2018-Jul-10 03:53N 48°31' W 122°36'0 0.0
2018-Jul-10 03:29N 48°31' W 122°36'0 0.0
2018-Jul-10 02:59N 48°31' W 122°36'0 0.0
2018-Jul-10 02:29N 48°31' W 122°36'0 0.0
2018-Jul-10 01:53N 48°31' W 122°36'0 0.0
2018-Jul-10 01:29N 48°31' W 122°36'0 0.0
2018-Jul-10 00:59N 48°31' W 122°36'0 0.0
2018-Jul-10 00:29N 48°31' W 122°36'0 0.0
2018-Jul-09 23:59N 48°31' W 122°36'0 0.0
2018-Jul-09 23:29N 48°31' W 122°36'0 0.0
2018-Jul-09 22:59N 48°31' W 122°36'0 0.0
2018-Jul-09 22:29N 48°31' W 122°36'0 0.0
2018-Jul-09 21:59N 48°31' W 122°36'0 0.0
2018-Jul-09 21:29N 48°31' W 122°36'0 0.0
2018-Jul-09 20:59N 48°31' W 122°36'0 0.0
2018-Jul-09 20:29N 48°31' W 122°36'0 0.0
2018-Jul-09 19:59N 48°31' W 122°36'0 0.0
2018-Jul-09 19:23N 48°31' W 122°36'0 0.0
2018-Jul-09 18:59N 48°31' W 122°36'0 0.0
2018-Jul-09 18:20N 48°31' W 122°36'0 0.0
2018-Jul-09 17:50N 48°31' W 122°36'0 0.0
2018-Jul-09 17:26N 48°31' W 122°36'0 0.0
2018-Jul-09 16:56N 48°31' W 122°36'0 0.0
2018-Jul-09 16:26N 48°31' W 122°36'0 0.0
2018-Jul-09 15:56N 48°31' W 122°36'0 0.0
2018-Jul-09 15:20N 48°31' W 122°36'0 0.0
2018-Jul-09 14:56N 48°31' W 122°36'0 0.0
2018-Jul-09 14:26N 48°31' W 122°36'0 0.0
2018-Jul-09 13:56N 48°31' W 122°36'0 0.0
2018-Jul-09 13:26N 48°31' W 122°36'0 0.0
2018-Jul-09 12:56N 48°31' W 122°36'0 0.0
2018-Jul-09 12:23N 48°31' W 122°36'0 0.0
2018-Jul-09 11:59N 48°31' W 122°36'0 0.0
2018-Jul-09 11:29N 48°31' W 122°36'0 0.0
2018-Jul-09 10:59N 48°31' W 122°36'0 0.0
2018-Jul-09 10:29N 48°31' W 122°36'0 0.0
2018-Jul-09 09:59N 48°31' W 122°36'0 0.0
2018-Jul-09 09:29N 48°31' W 122°36'0 0.0
2018-Jul-09 08:59N 48°31' W 122°36'0 0.0
2018-Jul-09 08:29N 48°31' W 122°36'0 0.0
2018-Jul-09 07:59N 48°31' W 122°36'0 0.0
2018-Jul-09 07:29N 48°31' W 122°36'0 0.0
2018-Jul-09 06:59N 48°31' W 122°36'0 0.0
2018-Jul-09 06:29N 48°31' W 122°36'0 0.0
2018-Jul-09 05:50N 48°31' W 122°36'0 0.0
2018-Jul-09 05:26N 48°31' W 122°36'0 0.0
2018-Jul-09 04:56N 48°31' W 122°36'0 0.0
2018-Jul-09 04:26N 48°31' W 122°36'0 0.0
2018-Jul-09 03:56N 48°31' W 122°36'0 0.0
2018-Jul-09 03:26N 48°31' W 122°36'0 0.0
2018-Jul-09 02:56N 48°31' W 122°36'0 0.0
2018-Jul-09 02:26N 48°31' W 122°36'0 0.0
2018-Jul-09 01:50N 48°31' W 122°36'0 0.0
2018-Jul-09 01:26N 48°31' W 122°36'0 0.0
2018-Jul-09 00:59N 48°31' W 122°36'0 0.0
2018-Jul-09 00:29N 48°31' W 122°36'0 0.0
2018-Jul-08 23:59N 48°31' W 122°36'0 0.0
2018-Jul-08 23:29N 48°31' W 122°36'0 0.0
2018-Jul-08 22:59N 48°31' W 122°36'0 0.0
2018-Jul-08 22:29N 48°31' W 122°36'0 0.0
2018-Jul-08 21:53N 48°31' W 122°36'0 0.0
2018-Jul-08 21:29N 48°31' W 122°36'0 0.0
2018-Jul-08 20:59N 48°31' W 122°36'0 0.0
2018-Jul-08 20:29N 48°31' W 122°36'0 0.0
2018-Jul-08 19:59N 48°31' W 122°36'0 0.0
2018-Jul-08 19:29N 48°31' W 122°36'  

Dump ship's entire track history